Time;durP1;ratioP1;P1;durP2;ratioP2;P2;SDS_P1;SDS_P2;PMS_P1;PMS_P2;Temp;Humidity;BMP_temperature;BMP_pressure;BME280_temperature;BME280_humidity;BME280_pressure;Samples;Min_cycle;Max_cycle;Signal;HPM_P1;HPM_P2
2023/03/01 00:01:38;;;;;;;38.80;8.65;;;11.10;99.90;;;;;;4847569;29;20033;-94
2023/03/01 00:04:04;;;;;;;29.83;7.78;;;11.00;99.90;;;;;;4829534;29;20025;-91
2023/03/01 00:06:31;;;;;;;32.90;6.82;;;11.00;99.90;;;;;;4814213;29;20430;-91
2023/03/01 00:08:58;;;;;;;30.33;7.32;;;11.00;99.90;;;;;;4814401;29;20034;-92
2023/03/01 00:11:29;;;;;;;30.55;7.18;;;11.00;99.90;;;;;;4814284;29;20133;-88
2023/03/01 00:13:58;;;;;;;26.15;7.65;;;10.90;99.90;;;;;;4814338;29;20050;-89
2023/03/01 00:16:34;;;;;;;28.25;8.55;;;10.80;99.90;;;;;;4814104;29;20037;-90
2023/03/01 00:19:02;;;;;;;33.90;8.55;;;10.70;99.90;;;;;;4829760;29;20058;-88
2023/03/01 00:21:32;;;;;;;24.20;7.80;;;10.70;99.90;;;;;;4814362;29;20037;-89
2023/03/01 00:23:58;;;;;;;35.97;9.90;;;10.60;99.90;;;;;;4814112;29;20030;-89
2023/03/01 00:26:26;;;;;;;44.85;9.43;;;10.60;99.90;;;;;;4814199;29;20046;-89
2023/03/01 00:28:52;;;;;;;36.63;9.48;;;10.60;99.90;;;;;;4813948;29;20065;-89
2023/03/01 00:31:22;;;;;;;28.60;7.90;;;10.60;99.90;;;;;;4814913;29;20046;-91
2023/03/01 00:34:01;;;;;;;39.72;8.85;;;10.50;99.90;;;;;;4803109;29;20035;-94
2023/03/01 00:36:33;;;;;;;40.70;8.68;;;10.50;99.90;;;;;;4791273;29;20099;-80
2023/03/01 00:39:00;;;;;;;26.95;7.95;;;10.40;99.90;;;;;;4806603;29;20042;-80
2023/03/01 00:41:26;;;;;;;30.02;8.55;;;10.40;99.90;;;;;;4791157;29;20035;-80
2023/03/01 00:43:54;;;;;;;23.40;7.25;;;10.40;99.90;;;;;;4791355;29;20127;-79
2023/03/01 00:46:23;;;;;;;36.30;8.73;;;10.30;99.90;;;;;;4791684;29;20038;-76
2023/03/01 00:48:50;;;;;;;39.47;11.98;;;10.30;99.90;;;;;;4794901;29;20433;-77
2023/03/01 00:51:19;;;;;;;36.17;7.68;;;10.30;99.90;;;;;;4809858;29;20493;-79
2023/03/01 00:53:47;;;;;;;27.67;8.88;;;10.30;99.90;;;;;;4794569;29;20049;-77
2023/03/01 00:56:14;;;;;;;32.88;6.80;;;10.20;99.90;;;;;;4797979;29;20044;-77
2023/03/01 01:17:50;;;;;;;35.42;7.28;;;10.20;99.90;;;;;;4719417;30;20507;-94
2023/03/01 01:29:08;;;;;;;;;;;;;;;;;;;;;
2023/03/01 01:48:16;;;;;;;45.45;10.80;;;10.20;99.90;;;;;;4810934;29;20503;-93
2023/03/01 01:51:40;;;;;;;39.15;10.68;;;10.20;99.90;;;;;;4779164;29;20048;-94
2023/03/01 01:55:22;;;;;;;38.22;8.27;;;10.20;99.90;;;;;;4773157;30;20048;-93
2023/03/01 01:59:27;;;;;;;44.95;9.27;;;10.20;99.90;;;;;;4754131;30;20037;-93
2023/03/01 02:18:55;;;;;;;41.55;9.07;;;10.30;99.90;;;;;;5073942;23;20120;-93
2023/03/01 02:22:32;;;;;;;;;;;;;;;;;;;;;
2023/03/01 02:25:18;;;;;;;;;;;;;;;;;;;;;
2023/03/01 02:31:50;;;;;;;68.90;16.77;;;10.90;99.90;;;;;;4773886;30;20047;-93
2023/03/01 02:34:31;;;;;;;72.03;19.02;;;11.40;99.90;;;;;;4787744;30;20116;-91
2023/03/01 02:37:04;;;;;;;65.40;21.02;;;11.90;99.90;;;;;;4789168;30;20051;-92
2023/03/01 02:39:45;;;;;;;77.05;21.98;;;12.30;99.90;;;;;;4779645;30;20070;-93
2023/03/01 02:42:59;;;;;;;;;;;;;;;;;;;;;
2023/03/01 02:46:38;;;;;;;83.00;24.25;;;12.80;99.90;;;;;;4720937;30;20045;-93
2023/03/01 02:50:00;;;;;;;;;;;;;;;;;;;;;
2023/03/01 02:53:01;;;;;;;88.38;26.77;;;13.10;99.90;;;;;;4708133;30;20045;-92
2023/03/01 02:56:20;;;;;;;82.72;26.42;;;13.10;99.90;;;;;;4718116;30;20053;-93
2023/03/01 02:59:49;;;;;;;;;;;;;;;;;;;;;
2023/03/01 03:02:52;;;;;;;94.45;27.45;;;13.20;99.90;;;;;;4717749;30;20087;-93
2023/03/01 03:13:26;;;;;;;71.72;25.50;;;13.50;99.90;;;;;;4720837;30;20049;-95
2023/03/01 03:16:35;;;;;;;78.93;24.00;;;13.60;99.90;;;;;;4706395;30;20130;-92
2023/03/01 03:20:18;;;;;;;81.55;26.88;;;13.60;99.90;;;;;;4728941;30;20057;-92
2023/03/01 03:23:35;;;;;;;88.80;26.40;;;13.60;99.90;;;;;;4689733;30;20437;-93
2023/03/01 03:50:06;;;;;;;;;;;;;;;;;;;;;
2023/03/01 03:53:28;;;;;;;85.95;27.42;;;13.70;99.90;;;;;;4826039;29;20089;-93
2023/03/01 03:56:37;;;;;;;;;;;13.70;99.90;;;;;;4757181;30;20062;-94
2023/03/01 04:23:41;;;;;;;;;;;;;;;;;;;;;
2023/03/01 04:44:12;;;;;;;97.20;34.83;;;13.70;99.90;;;;;;4794191;30;20043;-94
2023/03/01 04:59:12;;;;;;;91.32;33.17;;;13.80;99.90;;;;;;4636817;31;20071;-93
2023/03/01 05:43:56;;;;;;;96.38;33.53;;;14.10;99.90;;;;;;4939845;24;20053;-92
2023/03/01 05:50:48;;;;;;;95.15;34.53;;;14.20;99.90;;;;;;4858514;29;20036;-92
2023/03/01 05:53:21;;;;;;;95.95;34.28;;;14.20;99.90;;;;;;4800415;29;20038;-92
2023/03/01 05:55:49;;;;;;;116.78;36.17;;;14.30;99.90;;;;;;4829993;29;20030;-92
2023/03/01 05:58:20;;;;;;;100.60;36.88;;;14.40;99.90;;;;;;4841182;29;20037;-91
2023/03/01 06:00:48;;;;;;;100.18;33.75;;;14.40;99.90;;;;;;4842559;29;20033;-92
2023/03/01 06:03:18;;;;;;;101.90;34.00;;;14.40;99.90;;;;;;4851055;29;20029;-93
2023/03/01 06:06:39;;;;;;;;;;;;;;;;;;;;;
2023/03/01 06:31:10;;;;;;;94.97;32.85;;;14.60;99.90;;;;;;4822860;29;20053;-92
2023/03/01 06:34:03;;;;;;;91.72;35.53;;;14.60;99.90;;;;;;4794481;29;20043;-92
2023/03/01 06:42:49;;;;;;;95.15;34.70;;;14.80;99.90;;;;;;4886132;23;20049;-91
2023/03/01 06:45:18;;;;;;;92.13;33.85;;;14.80;99.90;;;;;;4849282;29;20061;-90
2023/03/01 06:47:44;;;;;;;111.65;37.03;;;14.80;99.90;;;;;;4849890;29;20041;-90
2023/03/01 06:50:13;;;;;;;97.55;36.03;;;14.80;99.90;;;;;;4849817;29;20064;-91
2023/03/01 06:52:39;;;;;;;86.63;34.15;;;14.80;99.90;;;;;;4831555;29;20510;-92
2023/03/01 06:55:06;;;;;;;100.25;33.45;;;14.80;99.90;;;;;;4831673;29;20038;-92
2023/03/01 06:57:33;;;;;;;95.85;35.75;;;14.80;99.90;;;;;;4832037;29;20122;-91
2023/03/01 06:59:59;;;;;;;101.60;33.13;;;14.90;99.90;;;;;;4847012;29;20030;-90
2023/03/01 07:02:26;;;;;;;111.22;36.95;;;14.90;99.90;;;;;;4831414;29;20496;-91
2023/03/01 07:04:53;;;;;;;103.75;36.00;;;14.90;99.90;;;;;;4846430;29;20044;-92
2023/03/01 07:07:19;;;;;;;102.18;35.20;;;14.90;99.90;;;;;;4831210;29;20429;-91
2023/03/01 07:10:14;;;;;;;99.78;36.25;;;14.90;99.90;;;;;;4831462;29;20097;-90
2023/03/01 07:12:41;;;;;;;104.93;37.63;;;14.90;99.90;;;;;;4831452;29;20038;-90
2023/03/01 07:15:10;;;;;;;100.38;38.55;;;14.90;99.90;;;;;;4831445;29;20040;-91
2023/03/01 07:17:36;;;;;;;107.55;37.65;;;14.90;99.90;;;;;;4831259;29;20025;-90
2023/03/01 07:20:03;;;;;;;116.00;35.42;;;14.90;99.90;;;;;;4831113;29;20038;-90
2023/03/01 07:22:29;;;;;;;115.13;37.30;;;14.90;99.90;;;;;;4831013;29;20034;-89
2023/03/01 07:25:19;;;;;;;103.68;37.40;;;14.80;99.90;;;;;;4829354;29;20049;-91
2023/03/01 07:27:56;;;;;;;112.78;38.25;;;14.80;99.90;;;;;;4846003;29;20384;-90
2023/03/01 07:30:25;;;;;;;111.22;37.40;;;14.90;99.90;;;;;;4831034;29;20460;-91
2023/03/01 07:32:52;;;;;;;100.57;37.00;;;14.90;99.90;;;;;;4832667;29;20132;-90
2023/03/01 07:35:18;;;;;;;119.20;39.03;;;14.80;99.90;;;;;;4846072;29;20128;-90
2023/03/01 07:37:45;;;;;;;103.10;39.88;;;14.80;99.90;;;;;;4833389;29;20033;-91
2023/03/01 07:40:12;;;;;;;120.32;39.35;;;14.80;99.90;;;;;;4847051;29;20033;-91
2023/03/01 07:42:38;;;;;;;126.07;47.20;;;14.80;99.90;;;;;;4831883;29;20090;-91
2023/03/01 07:45:13;;;;;;;122.70;43.65;;;14.80;99.90;;;;;;4831237;29;20048;-92
2023/03/01 07:47:40;;;;;;;153.40;49.28;;;14.70;99.90;;;;;;4830919;29;20033;-91
2023/03/01 07:50:07;;;;;;;121.70;46.67;;;14.80;99.90;;;;;;4831970;29;20066;-90
2023/03/01 07:52:33;;;;;;;115.30;43.60;;;14.80;99.90;;;;;;4832248;29;20037;-91
2023/03/01 07:54:59;;;;;;;117.50;45.95;;;14.70;99.90;;;;;;4832117;29;20120;-90
2023/03/01 07:57:26;;;;;;;123.10;45.45;;;14.70;99.90;;;;;;4835914;29;20042;-92
2023/03/01 07:59:52;;;;;;;118.05;43.67;;;14.70;99.90;;;;;;4833560;29;20037;-92
2023/03/01 08:02:19;;;;;;;107.80;42.60;;;14.70;99.90;;;;;;4832704;29;20029;-92
2023/03/01 08:04:45;;;;;;;117.43;44.22;;;14.80;99.90;;;;;;4832826;29;20100;-91
2023/03/01 08:07:12;;;;;;;118.72;44.40;;;14.90;99.90;;;;;;4832583;29;20025;-92
2023/03/01 08:09:39;;;;;;;107.07;41.35;;;15.00;99.90;;;;;;4833198;29;20054;-92
2023/03/01 08:12:05;;;;;;;116.38;41.22;;;15.20;99.90;;;;;;4832321;29;20093;-91
2023/03/01 08:14:33;;;;;;;103.80;35.00;;;15.30;99.90;;;;;;4832271;29;20049;-92
2023/03/01 08:16:59;;;;;;;90.38;30.95;;;15.40;99.90;;;;;;4832562;29;20049;-91
2023/03/01 08:19:27;;;;;;;93.18;32.00;;;15.50;99.90;;;;;;4833060;29;20032;-93
2023/03/01 08:21:57;;;;;;;81.53;30.33;;;15.70;99.90;;;;;;4846461;29;20073;-91
2023/03/01 08:24:24;;;;;;;95.93;30.60;;;15.80;99.90;;;;;;4849322;29;20049;-92
2023/03/01 08:26:51;;;;;;;90.18;30.73;;;15.80;99.90;;;;;;4848730;29;20052;-92
2023/03/01 08:29:17;;;;;;;83.53;29.92;;;15.80;99.90;;;;;;4849435;29;20025;-92
2023/03/01 08:31:44;;;;;;;89.00;30.10;;;16.00;99.90;;;;;;4849817;29;20045;-92
2023/03/01 08:34:14;;;;;;;88.13;29.10;;;16.00;99.90;;;;;;4850781;29;20032;-92
2023/03/01 08:36:43;;;;;;;80.82;28.98;;;16.10;99.90;;;;;;4849800;29;20036;-92
2023/03/01 08:39:14;;;;;;;72.72;28.90;;;16.40;99.90;;;;;;4850236;29;20085;-92
2023/03/01 08:41:41;;;;;;;82.80;29.88;;;16.60;99.90;;;;;;4850216;29;20075;-91
2023/03/01 08:44:10;;;;;;;65.22;29.75;;;17.10;99.90;;;;;;4847934;29;20030;-92
2023/03/01 08:46:41;;;;;;;64.60;27.20;;;17.50;99.90;;;;;;4863511;29;20060;-90
2023/03/01 08:49:26;;;;;;;63.67;28.85;;;17.50;99.90;;;;;;4847179;29;20033;-93
2023/03/01 08:52:31;;;;;;;;;;;;;;;;;;;;;
2023/03/01 08:54:58;;;;;;;;;;;16.60;99.90;;;;;;4815117;29;20036;-75
2023/03/01 08:57:24;;;;;;;71.53;26.42;;;16.30;99.90;;;;;;4869772;29;19939;-74
2023/03/01 08:59:51;;;;;;;64.93;25.65;;;16.60;99.90;;;;;;4881687;29;20646;-74
2023/03/01 09:02:20;;;;;;;66.53;25.33;;;17.00;99.90;;;;;;4881766;29;20029;-74
2023/03/01 09:04:46;;;;;;;67.60;25.92;;;17.20;99.90;;;;;;4881817;29;20108;-82
2023/03/01 09:07:47;;;;;;;71.38;24.30;;;17.10;99.90;;;;;;4868847;29;20032;-93
2023/03/01 09:11:16;;;;;;;72.18;24.23;;;17.40;99.90;;;;;;4847524;29;20046;-91
2023/03/01 09:14:17;;;;;;;66.18;23.65;;;17.60;99.90;;;;;;4832063;29;20045;-93
2023/03/01 09:16:43;;;;;;;59.17;24.83;;;17.60;99.90;;;;;;4781683;29;20041;-89
2023/03/01 09:19:14;;;;;;;59.65;23.70;;;17.50;99.90;;;;;;4783669;29;20039;-91
2023/03/01 09:22:16;;;;;;;66.32;24.48;;;17.40;99.90;;;;;;4796893;29;20039;-93
2023/03/01 09:24:42;;;;;;;62.60;24.00;;;17.70;99.90;;;;;;4754312;30;20077;-90
2023/03/01 09:27:10;;;;;;;57.58;23.63;;;18.00;99.90;;;;;;4774879;29;20031;-91
2023/03/01 09:30:02;;;;;;;50.63;24.27;;;17.90;99.90;;;;;;4882380;23;20050;-93
2023/03/01 09:32:31;;;;;;;83.63;25.58;;;17.60;99.90;;;;;;4817331;29;20481;-93
2023/03/01 09:35:04;;;;;;;62.95;24.33;;;17.40;99.90;;;;;;4830350;29;20037;-93
2023/03/01 09:37:42;;;;;;;60.47;24.42;;;17.50;99.90;;;;;;4830774;29;20038;-93
2023/03/01 09:40:18;;;;;;;61.22;24.30;;;17.40;99.90;;;;;;4830780;29;20033;-93
2023/03/01 09:42:53;;;;;;;57.78;24.88;;;17.50;99.90;;;;;;4830197;29;20495;-93
2023/03/01 09:45:38;;;;;;;58.75;23.23;;;17.40;99.90;;;;;;4829612;29;20038;-93
2023/03/01 09:48:13;;;;;;;59.08;23.27;;;17.20;99.90;;;;;;4829660;29;20030;-94
2023/03/01 09:50:43;;;;;;;65.90;23.70;;;17.10;99.90;;;;;;4829515;29;20049;-92
2023/03/01 09:53:31;;;;;;;68.95;21.83;;;17.30;99.90;;;;;;4829328;29;20030;-93
2023/03/01 09:56:21;;;;;;;54.38;20.30;;;17.30;99.90;;;;;;4829895;29;20034;-92
2023/03/01 09:59:20;;;;;;;65.55;21.60;;;17.40;99.90;;;;;;4829629;29;20385;-94
2023/03/01 10:02:11;;;;;;;62.78;20.67;;;17.10;99.90;;;;;;4829350;29;20034;-93
2023/03/01 10:04:43;;;;;;;69.20;21.13;;;16.90;99.90;;;;;;4829524;29;20037;-93
2023/03/01 10:07:10;;;;;;;70.45;21.25;;;17.00;99.90;;;;;;4829331;29;20040;-93
2023/03/01 10:09:45;;;;;;;72.13;21.85;;;17.10;99.90;;;;;;4814363;29;20484;-93
2023/03/01 10:12:16;;;;;;;61.67;18.25;;;17.10;99.90;;;;;;4829219;29;20038;-93
2023/03/01 10:15:02;;;;;;;69.43;20.13;;;17.20;99.90;;;;;;4829382;29;20034;-93
2023/03/01 10:18:14;;;;;;;60.60;19.52;;;17.10;99.90;;;;;;4829997;29;20400;-93
2023/03/01 10:20:51;;;;;;;68.35;19.77;;;17.30;99.90;;;;;;4810287;29;20045;-93
2023/03/01 10:23:18;;;;;;;48.03;18.83;;;17.50;99.90;;;;;;4810260;29;20034;-93
2023/03/01 10:26:43;;;;;;;70.80;19.33;;;17.40;99.90;;;;;;4809615;29;20042;-93
2023/03/01 10:29:22;;;;;;;79.63;20.85;;;17.60;99.90;;;;;;5041820;23;20400;-94
2023/03/01 10:32:10;;;;;;;55.55;18.27;;;17.30;99.90;;;;;;4831526;29;20113;-93
2023/03/01 10:34:41;;;;;;;55.42;18.45;;;17.30;99.90;;;;;;4833394;29;20030;-93
2023/03/01 10:53:42;;;;;;;72.50;20.90;;;17.90;99.90;;;;;;4824944;29;20086;-92
2023/03/01 10:56:17;;;;;;;58.42;20.20;;;18.10;99.90;;;;;;4812676;29;20039;-93
2023/03/01 10:59:27;;;;;;;68.05;20.38;;;18.30;99.90;;;;;;4829871;29;20031;-94
2023/03/01 11:02:28;;;;;;;53.97;19.98;;;18.00;99.90;;;;;;4807608;30;20047;-93
2023/03/01 11:05:14;;;;;;;59.88;19.63;;;17.80;99.90;;;;;;4807343;30;20035;-94
2023/03/01 11:07:59;;;;;;;61.55;21.02;;;17.90;99.90;;;;;;4807579;30;20105;-93
2023/03/01 11:10:37;;;;;;;63.00;19.48;;;18.00;99.90;;;;;;4791049;30;20093;-94
2023/03/01 11:13:19;;;;;;;83.30;27.85;;;18.10;99.90;;;;;;4790871;30;20043;-94
2023/03/01 11:16:08;;;;;;;62.38;25.00;;;18.20;99.90;;;;;;4775982;30;20043;-94
2023/03/01 11:19:17;;;;;;;62.25;24.73;;;18.20;99.90;;;;;;4770011;30;20114;-93
2023/03/01 11:22:14;;;;;;;64.30;23.95;;;18.50;99.90;;;;;;4771739;30;20040;-93
2023/03/01 11:25:01;;;;;;;62.78;22.52;;;18.50;99.90;;;;;;4774065;30;20110;-94
2023/03/01 11:27:34;;;;;;;58.45;21.63;;;18.70;99.90;;;;;;4802039;30;20044;-93
2023/03/01 11:30:23;;;;;;;63.30;21.48;;;18.40;99.90;;;;;;4772555;29;20047;-93
2023/03/01 11:36:55;;;;;;;61.75;22.63;;;18.40;99.90;;;;;;4708298;29;20045;-93
2023/03/01 11:40:01;;;;;;;63.00;23.80;;;18.10;99.90;;;;;;4792693;30;20042;-95
2023/03/01 11:42:56;;;;;;;69.97;26.30;;;18.00;99.90;;;;;;4808387;29;20044;-93
2023/03/01 11:46:01;;;;;;;56.00;22.33;;;17.90;99.90;;;;;;4804788;29;20071;-93
2023/03/01 11:52:45;;;;;;;47.75;20.85;;;18.00;99.90;;;;;;4848391;29;20050;-94
2023/03/01 11:56:03;;;;;;;46.85;19.88;;;18.40;99.90;;;;;;4861346;29;20046;-93
2023/03/01 11:59:17;;;;;;;59.05;21.15;;;18.40;99.90;;;;;;4840210;29;20050;-93
2023/03/01 12:02:22;;;;;;;62.17;20.63;;;18.30;99.90;;;;;;4772803;30;20070;-93
2023/03/01 12:05:15;;;;;;;58.50;21.73;;;18.20;99.90;;;;;;4734269;30;20076;-93
2023/03/01 12:08:16;;;;;;;59.78;20.95;;;18.30;99.90;;;;;;4734533;30;20037;-93
2023/03/01 12:10:49;;;;;;;53.90;20.70;;;18.50;99.90;;;;;;4734809;30;20053;-93
2023/03/01 12:13:36;;;;;;;68.60;21.30;;;18.60;99.90;;;;;;4728543;30;20096;-93
2023/03/01 12:17:03;;;;;;;74.53;21.75;;;18.60;99.90;;;;;;4733995;30;20041;-94
2023/03/01 12:19:48;;;;;;;63.90;21.30;;;18.70;99.90;;;;;;4733146;30;20033;-94
2023/03/01 12:22:36;;;;;;;68.63;23.45;;;18.70;99.90;;;;;;4733201;30;20109;-93
2023/03/01 12:25:13;;;;;;;66.50;21.77;;;18.30;99.90;;;;;;4713057;30;20057;-93
2023/03/01 12:31:39;;;;;;;61.50;20.52;;;18.10;99.90;;;;;;5268014;23;20065;-91
2023/03/01 12:34:12;;;;;;;69.35;21.33;;;18.00;99.90;;;;;;4848178;29;20089;-91
2023/03/01 12:36:56;;;;;;;62.58;21.10;;;17.80;99.90;;;;;;4848109;29;20052;-91
2023/03/01 12:39:26;;;;;;;70.13;20.63;;;18.10;99.90;;;;;;4848721;29;20029;-91
2023/03/01 12:42:16;;;;;;;52.33;19.42;;;18.20;99.90;;;;;;4848434;29;20025;-91
2023/03/01 12:45:18;;;;;;;47.20;20.27;;;18.40;99.90;;;;;;4772637;29;20113;-92
2023/03/01 12:48:09;;;;;;;66.45;20.42;;;18.10;99.90;;;;;;4772920;30;20060;-92
2023/03/01 12:50:39;;;;;;;62.53;20.60;;;18.10;99.90;;;;;;4758029;30;20059;-91
2023/03/01 12:53:23;;;;;;;58.05;21.20;;;17.80;99.90;;;;;;4758117;30;20051;-91
2023/03/01 12:55:52;;;;;;;;;;;17.70;99.90;;;;;;4758528;30;20039;-93
2023/03/01 12:58:30;;;;;;;53.80;20.40;;;18.10;99.90;;;;;;4757858;30;20420;-92
2023/03/01 13:37:30;;;;;;;44.97;20.17;;;17.40;99.90;;;;;;4877263;29;20129;-94
2023/03/01 13:43:45;;;;;;;58.70;21.27;;;17.70;99.90;;;;;;4862069;29;20053;-94
2023/03/01 13:46:23;;;;;;;52.95;20.67;;;17.70;99.90;;;;;;4905485;23;20038;-92
2023/03/01 13:49:18;;;;;;;52.40;22.30;;;17.50;99.90;;;;;;4834683;29;20054;-94
2023/03/01 13:54:46;;;;;;;49.63;22.80;;;17.30;99.90;;;;;;5157081;23;19973;-86
2023/03/01 13:57:25;;;;;;;66.07;22.50;;;17.20;99.90;;;;;;4834766;29;20476;-82
2023/03/01 13:59:52;;;;;;;70.28;22.98;;;17.10;99.90;;;;;;4849097;29;20033;-77
2023/03/01 14:02:18;;;;;;;50.35;21.42;;;17.10;99.90;;;;;;4862437;29;20025;-76
2023/03/01 14:04:57;;;;;;;56.38;21.52;;;17.00;99.90;;;;;;4848724;29;20087;-86
2023/03/01 14:07:25;;;;;;;61.13;22.05;;;16.70;99.90;;;;;;4864535;29;20025;-86
2023/03/01 14:10:03;;;;;;;48.03;22.10;;;16.70;99.90;;;;;;4864748;29;20029;-86
2023/03/01 14:12:45;;;;;;;53.53;21.30;;;16.90;99.90;;;;;;4865098;29;20050;-82
2023/03/01 14:15:42;;;;;;;56.08;21.42;;;16.80;99.90;;;;;;4864634;29;20038;-83
2023/03/01 14:18:52;;;;;;;61.80;20.52;;;16.70;99.90;;;;;;4864988;29;20037;-80
2023/03/01 14:21:19;;;;;;;56.70;21.33;;;16.60;99.90;;;;;;4789284;30;20082;-87
2023/03/01 14:23:49;;;;;;;52.47;20.33;;;16.70;99.90;;;;;;4789747;30;20047;-91
2023/03/01 14:26:45;;;;;;;55.85;21.92;;;16.40;99.90;;;;;;4791393;30;20040;-87
2023/03/01 14:29:33;;;;;;;59.17;22.25;;;16.40;99.90;;;;;;4789708;30;20031;-93
2023/03/01 14:32:29;;;;;;;58.30;21.95;;;16.30;99.90;;;;;;4789243;30;20467;-92
2023/03/01 14:34:58;;;;;;;48.70;20.35;;;16.30;99.90;;;;;;4788868;30;20035;-92
2023/03/01 14:37:31;;;;;;;60.00;21.13;;;16.30;99.90;;;;;;4788975;30;20108;-93
2023/03/01 14:40:00;;;;;;;46.33;19.73;;;16.20;99.90;;;;;;4788650;30;20043;-92
2023/03/01 14:42:36;;;;;;;44.00;19.42;;;16.10;99.90;;;;;;4788781;30;20088;-92
2023/03/01 14:45:03;;;;;;;35.45;18.35;;;16.10;99.90;;;;;;4788668;30;20118;-91
2023/03/01 14:47:33;;;;;;;41.40;21.67;;;16.10;99.90;;;;;;4788629;30;20035;-92
2023/03/01 14:50:15;;;;;;;44.97;22.02;;;16.00;99.90;;;;;;4785451;30;20039;-92
2023/03/01 14:52:45;;;;;;;47.55;19.60;;;15.90;99.90;;;;;;4770911;30;20040;-93
2023/03/01 14:55:19;;;;;;;45.35;19.65;;;15.90;99.90;;;;;;4740974;30;20138;-91
2023/03/01 14:57:47;;;;;;;;;;;16.00;99.90;;;;;;4792768;29;20070;-92
2023/03/01 15:00:29;;;;;;;41.03;19.38;;;16.00;99.90;;;;;;4825349;29;19916;-91
2023/03/01 15:03:00;;;;;;;39.33;19.13;;;16.10;99.90;;;;;;4795087;29;20464;-92
2023/03/01 15:05:30;;;;;;;38.88;19.58;;;16.00;99.90;;;;;;4794465;29;20034;-92
2023/03/01 15:07:58;;;;;;;48.97;20.08;;;16.10;99.90;;;;;;4794839;29;20034;-92
2023/03/01 15:10:29;;;;;;;40.15;19.13;;;16.10;99.90;;;;;;4794875;29;20038;-91
2023/03/01 15:12:56;;;;;;;41.88;18.40;;;16.10;99.90;;;;;;4795403;29;20445;-92
2023/03/01 15:15:29;;;;;;;38.92;19.48;;;16.00;99.90;;;;;;4794982;29;20086;-91
2023/03/01 15:18:03;;;;;;;39.40;18.27;;;16.00;99.90;;;;;;4794695;29;20046;-91
2023/03/01 15:20:35;;;;;;;42.13;18.90;;;16.10;99.90;;;;;;4795582;29;20405;-93
2023/03/01 15:23:02;;;;;;;33.13;18.13;;;16.10;99.90;;;;;;4795755;29;20046;-92
2023/03/01 15:25:31;;;;;;;32.92;18.27;;;16.10;99.90;;;;;;4795979;29;20057;-92
2023/03/01 15:28:00;;;;;;;38.85;19.70;;;16.20;99.90;;;;;;4796866;29;20030;-93
2023/03/01 15:30:34;;;;;;;39.03;19.35;;;16.20;99.90;;;;;;4797440;29;20096;-92
2023/03/01 15:33:37;;;;;;;37.95;17.75;;;16.10;99.90;;;;;;4800516;29;20173;-93
2023/03/01 15:36:49;;;;;;;49.17;18.38;;;16.10;99.90;;;;;;4742285;30;20044;-92
2023/03/01 15:39:43;;;;;;;34.97;19.38;;;16.10;99.90;;;;;;4748541;30;20179;-93
2023/03/01 15:42:33;;;;;;;38.60;19.13;;;15.90;99.90;;;;;;4738031;30;20045;-92
2023/03/01 15:45:33;;;;;;;39.08;18.10;;;15.60;99.90;;;;;;4742449;30;20052;-94
2023/03/01 15:50:45;;;;;;;32.22;19.27;;;15.60;99.90;;;;;;4865286;23;20069;-93
2023/03/01 15:53:16;;;;;;;40.33;19.10;;;15.60;99.90;;;;;;4816024;29;20061;-93
2023/03/01 15:55:49;;;;;;;40.90;19.95;;;15.60;99.90;;;;;;4828488;29;20116;-94
2023/03/01 15:58:23;;;;;;;28.50;18.37;;;15.60;99.90;;;;;;4814299;29;20043;-95
2023/03/01 16:00:55;;;;;;;;;;;15.70;99.90;;;;;;4821139;29;20086;-92
2023/03/01 16:03:22;;;;;;;49.65;20.15;;;15.60;99.90;;;;;;4848333;24;19936;-93
2023/03/01 16:06:17;;;;;;;36.45;19.88;;;15.40;99.90;;;;;;4866868;29;20555;-94
2023/03/01 16:08:53;;;;;;;38.85;20.80;;;15.40;99.90;;;;;;4850554;29;20047;-94
2023/03/01 16:11:33;;;;;;;42.75;21.25;;;15.30;99.90;;;;;;4820200;29;20083;-94
2023/03/01 16:14:09;;;;;;;30.55;20.67;;;15.30;99.90;;;;;;4819602;29;20026;-93
2023/03/01 16:16:36;;;;;;;59.60;25.20;;;15.30;99.90;;;;;;4838939;29;20050;-93
2023/03/01 16:19:02;;;;;;;38.05;20.25;;;15.20;99.90;;;;;;4810753;29;20038;-92
2023/03/01 16:21:29;;;;;;;44.40;23.63;;;15.20;99.90;;;;;;4808693;29;20071;-94
2023/03/01 16:24:30;;;;;;;;;;;;;;;;;;;;;
2023/03/01 16:27:22;;;;;;;42.75;19.75;;;15.00;99.90;;;;;;4836299;29;20078;-92
2023/03/01 16:29:52;;;;;;;38.50;19.33;;;15.00;99.90;;;;;;4821329;29;20030;-92
2023/03/01 16:32:21;;;;;;;36.47;18.33;;;15.00;99.90;;;;;;4822015;29;20034;-93
2023/03/01 16:34:49;;;;;;;41.13;18.85;;;14.90;99.90;;;;;;4829068;29;20034;-94
2023/03/01 16:37:16;;;;;;;45.17;20.85;;;14.90;99.90;;;;;;4802674;29;20091;-93
2023/03/01 16:39:42;;;;;;;42.60;21.10;;;14.80;99.90;;;;;;4813959;29;20030;-93
2023/03/01 16:42:09;;;;;;;41.85;20.90;;;14.80;99.90;;;;;;4814439;29;20053;-92
2023/03/01 16:44:35;;;;;;;50.67;19.17;;;14.70;99.90;;;;;;4835239;29;20021;-92
2023/03/01 16:47:01;;;;;;;33.50;17.67;;;14.60;99.90;;;;;;4833873;29;20437;-91
2023/03/01 16:49:28;;;;;;;50.90;21.77;;;14.50;99.90;;;;;;4848659;29;20033;-92
2023/03/01 16:51:54;;;;;;;51.10;22.83;;;14.50;99.90;;;;;;4848905;29;20041;-93
2023/03/01 16:54:20;;;;;;;56.20;19.48;;;14.50;99.90;;;;;;4848151;29;20034;-92
2023/03/01 16:56:47;;;;;;;45.58;20.02;;;14.40;99.90;;;;;;4853852;29;20030;-92
2023/03/01 16:59:13;;;;;;;38.00;21.45;;;14.40;99.90;;;;;;4845326;29;20026;-93
2023/03/01 17:01:40;;;;;;;46.65;20.40;;;14.30;99.90;;;;;;4845291;29;20042;-93
2023/03/01 17:04:10;;;;;;;46.03;20.70;;;14.30;99.90;;;;;;4845197;29;20058;-93
2023/03/01 17:06:36;;;;;;;39.40;20.92;;;14.20;99.90;;;;;;4831852;29;20034;-92
2023/03/01 17:09:03;;;;;;;43.00;16.77;;;14.20;99.90;;;;;;4845021;29;20053;-92
2023/03/01 17:11:29;;;;;;;43.78;18.45;;;14.20;99.90;;;;;;4845276;29;20038;-92
2023/03/01 17:13:56;;;;;;;37.03;15.95;;;14.10;99.90;;;;;;4844903;29;20029;-92
2023/03/01 17:16:40;;;;;;;31.60;16.48;;;14.10;99.90;;;;;;4859788;29;20061;-94
2023/03/01 17:19:08;;;;;;;35.53;15.77;;;14.00;99.90;;;;;;4863632;29;20046;-94
2023/03/01 17:21:37;;;;;;;46.95;22.05;;;14.00;99.90;;;;;;4857200;29;20029;-94
2023/03/01 17:24:03;;;;;;;55.67;29.52;;;14.00;99.90;;;;;;4855490;29;20132;-93
2023/03/01 17:26:30;;;;;;;38.13;21.60;;;13.90;99.90;;;;;;4853936;29;20112;-95
2023/03/01 17:28:58;;;;;;;42.33;18.25;;;13.80;99.90;;;;;;4859335;29;20039;-94
2023/03/01 17:31:27;;;;;;;37.13;19.27;;;13.70;99.90;;;;;;4875105;29;20060;-94
2023/03/01 17:33:56;;;;;;;41.38;17.17;;;13.70;99.90;;;;;;4855904;29;20029;-92
2023/03/01 17:36:22;;;;;;;37.85;17.15;;;13.60;99.90;;;;;;4858227;29;20029;-93
2023/03/01 17:38:52;;;;;;;34.72;16.80;;;13.50;99.90;;;;;;4868293;29;20029;-93
2023/03/01 17:41:19;;;;;;;33.65;15.68;;;13.50;99.90;;;;;;4868769;29;20064;-93
2023/03/01 17:46:34;;;;;;;31.15;15.68;;;13.30;99.90;;;;;;4871070;29;20045;-93
2023/03/01 17:49:00;;;;;;;24.48;12.88;;;13.20;99.90;;;;;;4834693;29;20071;-93
2023/03/01 17:51:28;;;;;;;27.58;14.18;;;13.10;99.90;;;;;;4851260;29;20043;-93
2023/03/01 17:53:54;;;;;;;28.77;14.48;;;13.10;99.90;;;;;;4829081;29;20026;-93
2023/03/01 17:56:21;;;;;;;33.58;14.75;;;13.00;99.90;;;;;;4817352;29;20441;-93
2023/03/01 17:58:47;;;;;;;28.10;14.15;;;13.00;99.90;;;;;;4824620;29;20114;-93
2023/03/01 18:01:19;;;;;;;41.25;15.60;;;12.90;99.90;;;;;;4816480;29;20124;-93
2023/03/01 18:03:46;;;;;;;28.80;15.65;;;13.00;99.90;;;;;;4825563;29;20094;-92
2023/03/01 18:06:19;;;;;;;33.72;15.27;;;12.90;99.90;;;;;;4825263;29;20121;-94
2023/03/01 18:08:54;;;;;;;39.72;15.93;;;12.90;99.90;;;;;;4835482;29;20029;-93
2023/03/01 18:11:23;;;;;;;33.65;17.08;;;12.90;99.90;;;;;;4846107;29;20046;-93
2023/03/01 18:13:50;;;;;;;28.63;15.15;;;12.90;99.90;;;;;;4833182;29;20130;-92
2023/03/01 18:16:19;;;;;;;38.10;16.45;;;12.80;99.90;;;;;;4833386;29;20041;-93
2023/03/01 18:18:45;;;;;;;32.45;15.18;;;12.90;99.90;;;;;;4837731;29;20090;-92
2023/03/01 18:21:12;;;;;;;36.95;14.55;;;12.80;99.90;;;;;;4822062;29;20397;-92
2023/03/01 18:23:39;;;;;;;31.23;13.90;;;12.80;99.90;;;;;;4847367;29;20041;-92
2023/03/01 18:26:11;;;;;;;27.65;14.52;;;12.80;99.90;;;;;;4831737;29;20029;-93
2023/03/01 18:28:38;;;;;;;36.97;15.32;;;12.80;99.90;;;;;;4847357;29;20034;-93
2023/03/01 18:31:09;;;;;;;37.45;15.63;;;12.70;99.90;;;;;;4833965;29;20041;-93
2023/03/01 18:33:37;;;;;;;34.65;16.33;;;12.70;99.90;;;;;;4849886;29;20037;-93
2023/03/01 18:36:04;;;;;;;34.30;14.88;;;12.60;99.90;;;;;;4835105;29;20034;-92
2023/03/01 18:38:32;;;;;;;37.22;15.52;;;12.60;99.90;;;;;;4852761;29;20476;-93
2023/03/01 18:40:58;;;;;;;35.70;14.88;;;12.60;99.90;;;;;;4851703;29;20037;-93